createdAt,value
2023-03-17T00:00:23.786Z,415.00
2023-03-17T01:04:30.860Z,419.00
2023-03-17T01:08:30.785Z,424.00
2023-03-17T01:12:30.748Z,421.00
2023-03-17T01:16:30.709Z,416.00
2023-03-17T01:20:30.892Z,411.00
2023-03-17T01:24:30.557Z,412.00
2023-03-17T01:28:30.653Z,416.00
2023-03-17T01:32:30.719Z,423.00
2023-03-17T01:36:30.755Z,419.00
2023-03-17T01:40:31.310Z,414.00
2023-03-17T01:44:30.911Z,409.00
2023-03-17T01:48:30.934Z,412.00
2023-03-17T01:52:30.983Z,415.00
2023-03-17T01:56:31.054Z,413.00
2023-03-17T02:00:31.479Z,412.00
2023-03-17T02:04:31.288Z,412.00
2023-03-17T02:08:31.219Z,416.00
2023-03-17T02:12:31.277Z,411.00
2023-03-17T02:16:31.401Z,413.00
2023-03-17T02:20:31.927Z,413.00
2023-03-17T02:24:31.444Z,413.00
2023-03-17T02:28:31.513Z,414.00
2023-03-17T02:32:31.600Z,416.00
2023-03-17T02:36:31.629Z,421.00
2023-03-17T02:40:32.084Z,417.00
2023-03-17T02:44:31.701Z,417.00
2023-03-17T02:48:31.766Z,412.00
2023-03-17T02:52:31.791Z,417.00
2023-03-17T02:56:31.828Z,413.00
2023-03-17T03:00:32.331Z,409.00
2023-03-17T03:04:31.928Z,409.00
2023-03-17T03:08:31.916Z,409.00
2023-03-17T03:12:31.932Z,412.00
2023-03-17T03:16:31.957Z,413.00
2023-03-17T03:20:32.197Z,414.00
2023-03-17T03:24:32.005Z,416.00
2023-03-17T03:28:32.056Z,416.00
2023-03-17T03:32:32.110Z,418.00
2023-03-17T03:36:32.158Z,418.00
2023-03-17T03:40:32.444Z,416.00
2023-03-17T03:44:32.177Z,412.00
2023-03-17T03:48:32.194Z,414.00
2023-03-17T03:52:32.249Z,416.00
2023-03-17T03:56:32.252Z,410.00
2023-03-17T04:00:32.888Z,413.00
2023-03-17T04:04:32.359Z,413.00
2023-03-17T04:08:32.353Z,415.00
2023-03-17T04:12:32.349Z,415.00
2023-03-17T04:16:32.402Z,411.00
2023-03-17T04:20:32.991Z,411.00
2023-03-17T04:24:32.471Z,416.00
2023-03-17T04:28:32.436Z,419.00
2023-03-17T04:32:32.445Z,415.00
2023-03-17T04:36:32.384Z,416.00
2023-03-17T04:40:32.681Z,420.00
2023-03-17T04:44:32.346Z,417.00
2023-03-17T04:48:32.303Z,415.00
2023-03-17T04:52:32.250Z,419.00
2023-03-17T04:56:32.229Z,422.00
2023-03-17T05:00:32.420Z,420.00
2023-03-17T05:04:32.560Z,422.00
2023-03-17T05:08:32.080Z,423.00
2023-03-17T05:12:32.013Z,417.00
2023-03-17T05:16:31.970Z,420.00
2023-03-17T05:20:32.305Z,419.00
2023-03-17T05:24:31.866Z,420.00
2023-03-17T05:28:31.822Z,416.00
2023-03-17T05:32:31.911Z,413.00
2023-03-17T05:36:31.693Z,416.00
2023-03-17T05:40:32.069Z,415.00
2023-03-17T05:44:31.628Z,415.00
2023-03-17T05:48:31.536Z,417.00
2023-03-17T05:52:31.456Z,418.00
2023-03-17T05:56:31.370Z,415.00
2023-03-17T06:00:31.813Z,410.00
2023-03-17T06:04:31.306Z,415.00
2023-03-17T06:08:31.357Z,418.00
2023-03-17T06:12:31.291Z,417.00
2023-03-17T06:16:31.325Z,412.00
2023-03-17T06:20:31.304Z,413.00
2023-03-17T06:24:31.368Z,419.00
2023-03-17T06:28:31.371Z,430.00
2023-03-17T06:32:31.447Z,435.00
2023-03-17T06:36:31.335Z,436.00
2023-03-17T06:40:31.366Z,442.00
2023-03-17T06:44:31.369Z,460.00
2023-03-17T06:48:31.398Z,478.00
2023-03-17T06:52:31.379Z,505.00
2023-03-17T06:56:31.203Z,608.00
2023-03-17T07:00:31.390Z,635.00
2023-03-17T07:04:31.451Z,698.00
2023-03-17T07:08:31.388Z,723.00
2023-03-17T07:12:31.331Z,772.00
2023-03-17T07:16:31.429Z,782.00
2023-03-17T07:20:31.476Z,817.00
2023-03-17T07:24:31.625Z,800.00
2023-03-17T07:28:30.881Z,790.00
2023-03-17T07:32:30.771Z,784.00
2023-03-17T07:36:30.925Z,789.00
2023-03-17T07:40:32.674Z,795.00
2023-03-17T07:44:30.394Z,811.00
2023-03-17T07:48:30.399Z,820.00
2023-03-17T07:52:33.949Z,820.00
2023-03-17T07:56:30.409Z,827.00
2023-03-17T08:00:30.401Z,850.00
2023-03-17T08:04:29.922Z,894.00
2023-03-17T08:08:29.932Z,896.00
2023-03-17T08:12:29.903Z,874.00
2023-03-17T08:16:29.972Z,875.00
2023-03-17T08:20:30.857Z,872.00
2023-03-17T08:24:30.920Z,879.00
2023-03-17T08:28:30.409Z,916.00
2023-03-17T08:32:30.514Z,891.00
2023-03-17T08:36:30.405Z,887.00
2023-03-17T08:40:30.377Z,867.00
2023-03-17T08:44:30.417Z,847.00
2023-03-17T08:48:29.919Z,846.00
2023-03-17T08:52:29.806Z,851.00
2023-03-17T08:56:30.445Z,736.00
2023-03-17T09:00:30.648Z,833.00
2023-03-17T09:04:30.511Z,827.00
2023-03-17T09:08:30.431Z,836.00
2023-03-17T09:12:31.474Z,823.00
2023-03-17T09:16:30.467Z,718.00
2023-03-17T09:20:30.412Z,741.00
2023-03-17T09:24:30.424Z,783.00
2023-03-17T09:28:30.447Z,744.00
2023-03-17T09:32:30.002Z,736.00
2023-03-17T09:36:29.925Z,739.00
2023-03-17T09:40:30.717Z,718.00
2023-03-17T09:44:30.683Z,703.00
2023-03-17T09:48:29.524Z,685.00
2023-03-17T09:52:29.976Z,710.00
2023-03-17T09:56:29.516Z,721.00
2023-03-17T10:00:30.084Z,732.00
2023-03-17T10:04:29.330Z,736.00
2023-03-17T10:08:31.921Z,721.00
2023-03-17T10:12:30.146Z,727.00
2023-03-17T10:16:29.554Z,736.00
2023-03-17T10:20:28.980Z,735.00
2023-03-17T10:24:28.986Z,775.00
2023-03-17T10:28:29.471Z,600.00
2023-03-17T10:32:29.543Z,602.00
2023-03-17T10:36:29.446Z,591.00
2023-03-17T10:40:29.689Z,572.00
2023-03-17T10:44:29.471Z,557.00
2023-03-17T10:48:30.034Z,543.00
2023-03-17T10:52:29.474Z,529.00
2023-03-17T10:56:29.269Z,518.00
2023-03-17T11:00:29.817Z,508.00
2023-03-17T11:04:29.548Z,502.00
2023-03-17T11:08:29.488Z,496.00
2023-03-17T11:12:29.050Z,488.00
2023-03-17T11:16:29.068Z,485.00
2023-03-17T11:20:29.270Z,480.00
2023-03-17T11:24:30.435Z,472.00
2023-03-17T11:28:28.987Z,471.00
2023-03-17T11:32:29.089Z,467.00
2023-03-17T11:36:28.502Z,462.00
2023-03-17T11:40:28.926Z,455.00
2023-03-17T11:44:28.486Z,451.00
2023-03-17T11:48:28.474Z,447.00
2023-03-17T11:52:28.595Z,443.00
2023-03-17T11:56:28.496Z,439.00
2023-03-17T12:00:28.498Z,437.00
2023-03-17T12:04:28.035Z,439.00
2023-03-17T12:08:28.068Z,436.00
2023-03-17T12:12:27.971Z,437.00
2023-03-17T12:16:27.999Z,432.00
2023-03-17T12:20:28.038Z,430.00
2023-03-17T12:24:27.760Z,431.00
2023-03-17T12:28:27.991Z,431.00
2023-03-17T12:32:28.098Z,436.00
2023-03-17T12:36:27.486Z,433.00
2023-03-17T12:40:27.638Z,435.00
2023-03-17T12:44:27.236Z,437.00
2023-03-17T12:48:27.151Z,433.00
2023-03-17T12:52:27.101Z,433.00
2023-03-17T12:56:27.527Z,435.00
2023-03-17T13:00:27.143Z,437.00
2023-03-17T13:04:27.507Z,436.00
2023-03-17T13:08:27.514Z,431.00
2023-03-17T13:12:27.540Z,435.00
2023-03-17T13:16:27.603Z,435.00
2023-03-17T13:20:28.027Z,459.00
2023-03-17T13:24:27.755Z,460.00
2023-03-17T13:28:28.022Z,466.00
2023-03-17T13:32:28.082Z,470.00
2023-03-17T13:36:27.502Z,467.00
2023-03-17T13:40:27.531Z,469.00
2023-03-17T13:44:27.275Z,460.00
2023-03-17T13:48:27.517Z,454.00
2023-03-17T13:52:27.586Z,451.00
2023-03-17T13:56:28.069Z,455.00
2023-03-17T14:00:28.141Z,453.00
2023-03-17T14:04:27.537Z,450.00
2023-03-17T14:08:27.550Z,451.00
2023-03-17T14:12:27.559Z,447.00
2023-03-17T14:16:27.689Z,445.00
2023-03-17T14:20:27.604Z,444.00
2023-03-17T14:24:27.559Z,441.00
2023-03-17T14:28:27.372Z,437.00
2023-03-17T14:32:27.288Z,435.00
2023-03-17T14:36:27.203Z,430.00
2023-03-17T14:40:26.918Z,431.00
2023-03-17T14:44:27.039Z,427.00
2023-03-17T14:48:26.722Z,426.00
2023-03-17T14:52:26.594Z,426.00
2023-03-17T14:56:26.723Z,425.00
2023-03-17T15:00:26.660Z,423.00
2023-03-17T15:04:27.620Z,422.00
2023-03-17T15:08:26.569Z,422.00
2023-03-17T15:12:26.560Z,421.00
2023-03-17T15:16:26.850Z,422.00
2023-03-17T15:20:27.068Z,422.00
2023-03-17T15:24:27.077Z,423.00
2023-03-17T15:28:27.584Z,422.00
2023-03-17T15:32:27.712Z,420.00
2023-03-17T15:36:32.846Z,419.00
2023-03-17T15:40:27.208Z,415.00
2023-03-17T15:44:27.148Z,410.00
2023-03-17T15:48:27.140Z,411.00
2023-03-17T15:52:27.023Z,411.00
2023-03-17T15:56:26.871Z,413.00
2023-03-17T16:00:26.813Z,416.00
2023-03-17T16:04:26.803Z,414.00
2023-03-17T16:08:27.088Z,410.00
2023-03-17T16:12:26.554Z,409.00
2023-03-17T16:16:26.449Z,410.00
2023-03-17T16:20:26.556Z,411.00
2023-03-17T16:24:26.325Z,412.00
2023-03-17T16:28:26.218Z,410.00
2023-03-17T16:32:26.119Z,411.00
2023-03-17T16:36:26.012Z,412.00
2023-03-17T16:40:26.076Z,408.00
2023-03-17T16:44:25.864Z,410.00
2023-03-17T16:48:25.760Z,410.00
2023-03-17T16:52:25.695Z,415.00
2023-03-17T16:56:25.775Z,414.00
2023-03-17T17:00:25.524Z,414.00
2023-03-17T17:04:25.512Z,416.00
2023-03-17T17:08:25.600Z,416.00
2023-03-17T17:12:25.476Z,419.00
2023-03-17T17:16:25.543Z,415.00
2023-03-17T17:20:25.454Z,420.00
2023-03-17T17:24:25.409Z,420.00
2023-03-17T17:28:25.365Z,421.00
2023-03-17T17:32:25.266Z,425.00
2023-03-17T17:36:25.598Z,421.00
2023-03-17T17:40:25.153Z,421.00
2023-03-17T17:44:25.093Z,423.00
2023-03-17T17:48:25.017Z,425.00
2023-03-17T17:52:24.948Z,423.00
2023-03-17T17:56:24.929Z,423.00
2023-03-17T18:00:24.908Z,428.00
2023-03-17T18:04:24.867Z,423.00
2023-03-17T18:08:24.830Z,419.00
2023-03-17T18:12:24.738Z,420.00
2023-03-17T18:16:24.732Z,420.00
2023-03-17T18:20:24.683Z,419.00
2023-03-17T18:24:24.635Z,420.00
2023-03-17T18:28:24.602Z,412.00
2023-03-17T18:32:24.602Z,414.00
2023-03-17T18:36:24.577Z,416.00
2023-03-17T18:40:24.584Z,422.00
2023-03-17T18:44:24.528Z,421.00
2023-03-17T18:48:24.508Z,419.00
2023-03-17T18:52:24.445Z,412.00
2023-03-17T18:56:24.506Z,411.00
2023-03-17T19:00:24.436Z,413.00
2023-03-17T19:04:24.466Z,413.00
2023-03-17T19:08:24.404Z,414.00
2023-03-17T19:12:24.442Z,418.00
2023-03-17T19:16:24.357Z,419.00
2023-03-17T19:20:24.335Z,419.00
2023-03-17T19:24:24.284Z,422.00
2023-03-17T19:28:24.321Z,422.00
2023-03-17T19:32:24.240Z,418.00
2023-03-17T19:36:24.248Z,422.00
2023-03-17T19:40:24.182Z,417.00
2023-03-17T19:44:24.196Z,416.00
2023-03-17T19:48:24.150Z,418.00
2023-03-17T19:52:24.155Z,423.00
2023-03-17T19:56:24.114Z,423.00
2023-03-17T20:00:24.128Z,422.00
2023-03-17T20:04:24.224Z,423.00
2023-03-17T20:08:24.067Z,421.00
2023-03-17T20:12:24.040Z,420.00
2023-03-17T20:16:24.164Z,421.00
2023-03-17T20:20:23.980Z,424.00
2023-03-17T20:24:23.993Z,427.00
2023-03-17T20:28:23.929Z,424.00
2023-03-17T20:32:23.941Z,425.00
2023-03-17T20:36:23.888Z,425.00
2023-03-17T20:40:23.884Z,424.00
2023-03-17T20:44:23.862Z,423.00
2023-03-17T20:48:23.862Z,418.00
2023-03-17T20:52:23.869Z,419.00
2023-03-17T20:56:23.824Z,420.00
2023-03-17T21:00:23.846Z,424.00
2023-03-17T21:04:23.855Z,425.00
2023-03-17T21:08:23.784Z,420.00
2023-03-17T21:12:23.828Z,424.00
2023-03-17T21:16:23.948Z,421.00
2023-03-17T21:20:23.846Z,419.00
2023-03-17T21:24:23.862Z,420.00
2023-03-17T21:28:23.882Z,419.00
2023-03-17T21:32:23.887Z,419.00
2023-03-17T21:36:23.881Z,422.00
2023-03-17T21:40:23.919Z,425.00
2023-03-17T21:44:23.962Z,426.00
2023-03-17T21:48:23.941Z,427.00
2023-03-17T21:52:30.695Z,423.00
2023-03-17T21:56:23.970Z,422.00
2023-03-17T22:00:25.671Z,424.00
2023-03-17T22:04:23.818Z,424.00
2023-03-17T22:08:30.220Z,426.00
2023-03-17T22:12:23.740Z,424.00
2023-03-17T22:16:23.793Z,416.00
2023-03-17T22:20:23.656Z,420.00
2023-03-17T22:24:23.599Z,417.00
2023-03-17T22:28:23.523Z,416.00
2023-03-17T22:32:23.493Z,414.00
2023-03-17T22:36:23.413Z,415.00
2023-03-17T22:40:23.443Z,416.00
2023-03-17T22:44:23.446Z,422.00
2023-03-17T22:48:23.556Z,418.00
2023-03-17T22:52:23.562Z,419.00
2023-03-17T22:56:23.590Z,424.00
2023-03-17T23:00:23.717Z,423.00
2023-03-17T23:04:23.744Z,420.00
2023-03-17T23:08:23.745Z,423.00
2023-03-17T23:12:23.780Z,425.00
2023-03-17T23:16:23.956Z,422.00
2023-03-17T23:20:23.902Z,420.00
2023-03-17T23:24:23.901Z,424.00
2023-03-17T23:28:23.900Z,422.00
2023-03-17T23:32:24.006Z,418.00
2023-03-17T23:36:23.993Z,419.00
2023-03-17T23:40:23.996Z,419.00
2023-03-17T23:44:24.049Z,417.00
2023-03-17T23:48:24.039Z,420.00
2023-03-17T23:52:24.118Z,418.00
2023-03-17T23:56:24.065Z,416.00
